sensor_id;sensor_type;location;lat;lon;timestamp;P1;durP1;ratioP1;P2;durP2;ratioP2
30020;SDS011;16861;52.294;7.760;2024-03-02T12:23:12;3.42;;;1.73;;
30020;SDS011;16861;52.294;7.760;2024-03-02T12:25:40;1.98;;;1.27;;
30020;SDS011;16861;52.294;7.760;2024-03-02T12:28:07;2.78;;;1.60;;
30020;SDS011;16861;52.294;7.760;2024-03-02T12:30:35;2.08;;;1.60;;
30020;SDS011;16861;52.294;7.760;2024-03-02T12:33:15;2.03;;;1.65;;
30020;SDS011;16861;52.294;7.760;2024-03-02T12:35:43;3.50;;;1.70;;
30020;SDS011;16861;52.294;7.760;2024-03-02T12:38:09;3.85;;;1.63;;
30020;SDS011;16861;52.294;7.760;2024-03-02T12:40:43;2.35;;;1.73;;
30020;SDS011;16861;52.294;7.760;2024-03-02T12:45:37;2.45;;;1.45;;
30020;SDS011;16861;52.294;7.760;2024-03-02T12:48:05;1.75;;;1.40;;
30020;SDS011;16861;52.294;7.760;2024-03-02T12:50:32;1.48;;;1.38;;
30020;SDS011;16861;52.294;7.760;2024-03-02T12:56:03;2.03;;;1.38;;
30020;SDS011;16861;52.294;7.760;2024-03-02T13:01:08;3.00;;;1.60;;
30020;SDS011;16861;52.294;7.760;2024-03-02T13:03:38;2.25;;;1.60;;
30020;SDS011;16861;52.294;7.760;2024-03-02T13:06:08;2.15;;;1.38;;
30020;SDS011;16861;52.294;7.760;2024-03-02T13:08:35;1.20;;;1.10;;
30020;SDS011;16861;52.294;7.760;2024-03-02T13:11:03;2.38;;;1.25;;
30020;SDS011;16861;52.294;7.760;2024-03-02T13:13:32;2.22;;;1.20;;
30020;SDS011;16861;52.294;7.760;2024-03-02T13:16:00;1.45;;;1.00;;
30020;SDS011;16861;52.294;7.760;2024-03-02T13:18:42;2.08;;;1.00;;
30020;SDS011;16861;52.294;7.760;2024-03-02T13:23:42;1.45;;;1.08;;
30020;SDS011;16861;52.294;7.760;2024-03-02T13:26:09;4.03;;;1.02;;
30020;SDS011;16861;52.294;7.760;2024-03-02T13:31:13;1.38;;;0.65;;
30020;SDS011;16861;52.294;7.760;2024-03-02T13:33:40;0.98;;;0.77;;
30020;SDS011;16861;52.294;7.760;2024-03-02T13:36:20;1.00;;;0.90;;
30020;SDS011;16861;52.294;7.760;2024-03-02T13:38:47;1.05;;;0.80;;
30020;SDS011;16861;52.294;7.760;2024-03-02T13:43:46;1.38;;;0.80;;
30020;SDS011;16861;52.294;7.760;2024-03-02T13:46:23;0.88;;;0.88;;
30020;SDS011;16861;52.294;7.760;2024-03-02T13:48:49;0.82;;;0.77;;
30020;SDS011;16861;52.294;7.760;2024-03-02T13:51:17;1.67;;;0.80;;
30020;SDS011;16861;52.294;7.760;2024-03-02T13:56:30;1.30;;;1.08;;
30020;SDS011;16861;52.294;7.760;2024-03-02T14:01:47;2.67;;;0.75;;
30020;SDS011;16861;52.294;7.760;2024-03-02T14:04:14;1.23;;;0.80;;
30020;SDS011;16861;52.294;7.760;2024-03-02T14:09:19;1.13;;;0.82;;
30020;SDS011;16861;52.294;7.760;2024-03-02T14:11:50;1.60;;;0.60;;
30020;SDS011;16861;52.294;7.760;2024-03-02T14:14:18;2.47;;;0.93;;
30020;SDS011;16861;52.294;7.760;2024-03-02T14:16:45;1.65;;;0.90;;
30020;SDS011;16861;52.294;7.760;2024-03-02T14:19:12;1.17;;;0.90;;
30020;SDS011;16861;52.294;7.760;2024-03-02T14:21:40;0.65;;;0.65;;
30020;SDS011;16861;52.294;7.760;2024-03-02T14:24:07;1.45;;;0.80;;
30020;SDS011;16861;52.294;7.760;2024-03-02T14:26:43;1.15;;;0.60;;
30020;SDS011;16861;52.294;7.760;2024-03-02T14:29:10;1.83;;;0.90;;
30020;SDS011;16861;52.294;7.760;2024-03-02T14:31:37;1.33;;;0.70;;
30020;SDS011;16861;52.294;7.760;2024-03-02T14:36:50;0.70;;;0.68;;
30020;SDS011;16861;52.294;7.760;2024-03-02T14:39:16;0.70;;;0.70;;
30020;SDS011;16861;52.294;7.760;2024-03-02T14:44:23;0.95;;;0.70;;
30020;SDS011;16861;52.294;7.760;2024-03-02T14:46:49;0.70;;;0.70;;
30020;SDS011;16861;52.294;7.760;2024-03-02T14:49:25;1.38;;;0.90;;
30020;SDS011;16861;52.294;7.760;2024-03-02T14:51:52;0.93;;;0.57;;
30020;SDS011;16861;52.294;7.760;2024-03-02T14:57:13;1.00;;;0.90;;
30020;SDS011;16861;52.294;7.760;2024-03-02T14:59:40;0.95;;;0.80;;
30020;SDS011;16861;52.294;7.760;2024-03-02T15:05:03;1.15;;;0.63;;
30020;SDS011;16861;52.294;7.760;2024-03-02T15:07:38;0.95;;;0.85;;
30020;SDS011;16861;52.294;7.760;2024-03-02T15:10:05;0.70;;;0.70;;
30020;SDS011;16861;52.294;7.760;2024-03-02T15:12:32;1.80;;;0.90;;
30020;SDS011;16861;52.294;7.760;2024-03-02T15:17:48;0.93;;;0.70;;
30020;SDS011;16861;52.294;7.760;2024-03-02T15:20:15;1.27;;;1.17;;
30020;SDS011;16861;52.294;7.760;2024-03-02T15:22:41;3.13;;;1.20;;
30020;SDS011;16861;52.294;7.760;2024-03-02T15:28:03;2.80;;;1.70;;
30020;SDS011;16861;52.294;7.760;2024-03-02T15:30:31;2.15;;;1.70;;
30020;SDS011;16861;52.294;7.760;2024-03-02T15:32:58;3.55;;;1.83;;
30020;SDS011;16861;52.294;7.760;2024-03-02T15:35:31;1.90;;;1.70;;
30020;SDS011;16861;52.294;7.760;2024-03-02T15:37:58;2.83;;;1.90;;
30020;SDS011;16861;52.294;7.760;2024-03-02T15:43:13;2.72;;;1.92;;
30020;SDS011;16861;52.294;7.760;2024-03-02T15:50:50;3.40;;;2.20;;
30020;SDS011;16861;52.294;7.760;2024-03-02T15:53:19;2.50;;;2.08;;
30020;SDS011;16861;52.294;7.760;2024-03-02T15:55:46;3.53;;;2.47;;
30020;SDS011;16861;52.294;7.760;2024-03-02T15:58:13;3.90;;;2.75;;
30020;SDS011;16861;52.294;7.760;2024-03-02T16:03:36;5.97;;;3.17;;
30020;SDS011;16861;52.294;7.760;2024-03-02T16:06:03;4.88;;;3.20;;
30020;SDS011;16861;52.294;7.760;2024-03-02T16:08:36;3.47;;;3.03;;
30020;SDS011;16861;52.294;7.760;2024-03-02T16:11:02;3.55;;;2.85;;
30020;SDS011;16861;52.294;7.760;2024-03-02T16:13:31;4.03;;;3.20;;
30020;SDS011;16861;52.294;7.760;2024-03-02T16:15:58;5.25;;;3.38;;
30020;SDS011;16861;52.294;7.760;2024-03-02T16:18:25;4.38;;;3.10;;
30020;SDS011;16861;52.294;7.760;2024-03-02T16:20:53;4.05;;;3.13;;
30020;SDS011;16861;52.294;7.760;2024-03-02T16:23:21;4.88;;;3.53;;
30020;SDS011;16861;52.294;7.760;2024-03-02T16:25:48;5.80;;;3.75;;
30020;SDS011;16861;52.294;7.760;2024-03-02T16:28:14;5.20;;;3.35;;
30020;SDS011;16861;52.294;7.760;2024-03-02T16:30:41;5.03;;;3.47;;
30020;SDS011;16861;52.294;7.760;2024-03-02T16:33:08;4.32;;;3.17;;
30020;SDS011;16861;52.294;7.760;2024-03-02T16:35:35;4.63;;;3.65;;
30020;SDS011;16861;52.294;7.760;2024-03-02T16:38:01;4.90;;;3.08;;
30020;SDS011;16861;52.294;7.760;2024-03-02T16:43:05;3.85;;;3.35;;
30020;SDS011;16861;52.294;7.760;2024-03-02T16:48:15;4.07;;;3.35;;
30020;SDS011;16861;52.294;7.760;2024-03-02T16:53:13;4.25;;;3.15;;
30020;SDS011;16861;52.294;7.760;2024-03-02T16:58:59;4.18;;;3.28;;
30020;SDS011;16861;52.294;7.760;2024-03-02T17:01:25;5.30;;;3.35;;
30020;SDS011;16861;52.294;7.760;2024-03-02T17:04:00;6.03;;;3.50;;
30020;SDS011;16861;52.294;7.760;2024-03-02T17:06:27;3.80;;;3.20;;
30020;SDS011;16861;52.294;7.760;2024-03-02T17:08:55;3.97;;;3.13;;
30020;SDS011;16861;52.294;7.760;2024-03-02T17:11:22;4.55;;;3.47;;
30020;SDS011;16861;52.294;7.760;2024-03-02T17:13:50;4.57;;;2.97;;
30020;SDS011;16861;52.294;7.760;2024-03-02T17:16:18;4.82;;;3.03;;
30020;SDS011;16861;52.294;7.760;2024-03-02T17:18:58;3.90;;;3.10;;
30020;SDS011;16861;52.294;7.760;2024-03-02T17:21:25;3.33;;;2.80;;
30020;SDS011;16861;52.294;7.760;2024-03-02T17:23:54;4.75;;;3.08;;
30020;SDS011;16861;52.294;7.760;2024-03-02T17:26:20;5.28;;;2.88;;
30020;SDS011;16861;52.294;7.760;2024-03-02T17:28:50;4.38;;;3.15;;
30020;SDS011;16861;52.294;7.760;2024-03-02T17:31:17;4.82;;;3.10;;
30020;SDS011;16861;52.294;7.760;2024-03-02T17:33:56;4.32;;;3.17;;
30020;SDS011;16861;52.294;7.760;2024-03-02T17:36:23;4.47;;;2.97;;
30020;SDS011;16861;52.294;7.760;2024-03-02T17:38:51;3.08;;;2.45;;
30020;SDS011;16861;52.294;7.760;2024-03-02T17:41:18;4.15;;;2.55;;
30020;SDS011;16861;52.294;7.760;2024-03-02T17:46:30;3.28;;;2.65;;
30020;SDS011;16861;52.294;7.760;2024-03-02T17:48:59;2.97;;;2.60;;
30020;SDS011;16861;52.294;7.760;2024-03-02T17:51:26;4.05;;;3.10;;
30020;SDS011;16861;52.294;7.760;2024-03-02T17:56:30;7.20;;;3.00;;
30020;SDS011;16861;52.294;7.760;2024-03-02T17:59:00;4.00;;;2.70;;
30020;SDS011;16861;52.294;7.760;2024-03-02T18:01:27;2.97;;;2.60;;
30020;SDS011;16861;52.294;7.760;2024-03-02T18:04:09;3.92;;;2.72;;
30020;SDS011;16861;52.294;7.760;2024-03-02T18:06:36;3.08;;;2.22;;
30020;SDS011;16861;52.294;7.760;2024-03-02T18:09:10;4.45;;;3.00;;
30020;SDS011;16861;52.294;7.760;2024-03-02T18:11:37;3.95;;;2.83;;
30020;SDS011;16861;52.294;7.760;2024-03-02T18:14:04;3.63;;;2.70;;
30020;SDS011;16861;52.294;7.760;2024-03-02T18:16:37;3.15;;;2.35;;
30020;SDS011;16861;52.294;7.760;2024-03-02T18:19:04;3.60;;;2.30;;
30020;SDS011;16861;52.294;7.760;2024-03-02T18:21:35;3.17;;;2.25;;
30020;SDS011;16861;52.294;7.760;2024-03-02T18:24:01;3.72;;;2.33;;
30020;SDS011;16861;52.294;7.760;2024-03-02T18:26:28;2.72;;;2.05;;
30020;SDS011;16861;52.294;7.760;2024-03-02T18:28:58;2.72;;;2.03;;
30020;SDS011;16861;52.294;7.760;2024-03-02T18:31:29;2.75;;;2.17;;
30020;SDS011;16861;52.294;7.760;2024-03-02T18:37:05;3.30;;;2.20;;
30020;SDS011;16861;52.294;7.760;2024-03-02T18:39:31;3.17;;;2.35;;
30020;SDS011;16861;52.294;7.760;2024-03-02T18:41:58;3.88;;;2.15;;
30020;SDS011;16861;52.294;7.760;2024-03-02T18:44:25;3.20;;;2.35;;
30020;SDS011;16861;52.294;7.760;2024-03-02T18:46:52;2.83;;;2.08;;
30020;SDS011;16861;52.294;7.760;2024-03-02T18:49:18;3.65;;;2.35;;
30020;SDS011;16861;52.294;7.760;2024-03-02T18:51:46;3.45;;;2.60;;
30020;SDS011;16861;52.294;7.760;2024-03-02T18:54:12;3.08;;;2.17;;
30020;SDS011;16861;52.294;7.760;2024-03-02T18:56:39;3.80;;;2.30;;
30020;SDS011;16861;52.294;7.760;2024-03-02T18:59:06;4.45;;;2.40;;
30020;SDS011;16861;52.294;7.760;2024-03-02T19:01:32;6.18;;;2.47;;
30020;SDS011;16861;52.294;7.760;2024-03-02T19:03:59;3.83;;;2.45;;
30020;SDS011;16861;52.294;7.760;2024-03-02T19:06:26;3.70;;;2.65;;
30020;SDS011;16861;52.294;7.760;2024-03-02T19:08:53;4.35;;;2.78;;
30020;SDS011;16861;52.294;7.760;2024-03-02T19:11:19;4.00;;;3.00;;
30020;SDS011;16861;52.294;7.760;2024-03-02T19:13:46;2.70;;;2.30;;
30020;SDS011;16861;52.294;7.760;2024-03-02T19:16:14;6.93;;;2.80;;
30020;SDS011;16861;52.294;7.760;2024-03-02T19:18:41;4.20;;;2.65;;
30020;SDS011;16861;52.294;7.760;2024-03-02T19:21:09;4.32;;;3.28;;
30020;SDS011;16861;52.294;7.760;2024-03-02T19:23:36;4.97;;;2.97;;
30020;SDS011;16861;52.294;7.760;2024-03-02T19:26:10;4.45;;;2.90;;
30020;SDS011;16861;52.294;7.760;2024-03-02T19:28:45;4.45;;;3.10;;
30020;SDS011;16861;52.294;7.760;2024-03-02T19:31:15;3.47;;;2.55;;
30020;SDS011;16861;52.294;7.760;2024-03-02T19:33:42;3.88;;;2.90;;
30020;SDS011;16861;52.294;7.760;2024-03-02T19:36:09;5.15;;;3.05;;
30020;SDS011;16861;52.294;7.760;2024-03-02T19:38:35;3.35;;;2.65;;
30020;SDS011;16861;52.294;7.760;2024-03-02T19:41:03;5.13;;;3.05;;
30020;SDS011;16861;52.294;7.760;2024-03-02T19:43:31;3.33;;;2.78;;
30020;SDS011;16861;52.294;7.760;2024-03-02T19:45:58;3.72;;;2.72;;
30020;SDS011;16861;52.294;7.760;2024-03-02T19:48:25;3.05;;;2.65;;
30020;SDS011;16861;52.294;7.760;2024-03-02T19:50:51;4.40;;;3.15;;
30020;SDS011;16861;52.294;7.760;2024-03-02T19:53:18;7.22;;;2.83;;
30020;SDS011;16861;52.294;7.760;2024-03-02T19:55:45;3.78;;;2.63;;
30020;SDS011;16861;52.294;7.760;2024-03-02T19:58:12;3.45;;;2.50;;
30020;SDS011;16861;52.294;7.760;2024-03-02T20:00:39;3.08;;;2.58;;
30020;SDS011;16861;52.294;7.760;2024-03-02T20:03:07;4.40;;;2.80;;
30020;SDS011;16861;52.294;7.760;2024-03-02T20:05:36;3.83;;;2.78;;
30020;SDS011;16861;52.294;7.760;2024-03-02T20:08:02;4.68;;;2.70;;
30020;SDS011;16861;52.294;7.760;2024-03-02T20:10:30;4.70;;;3.10;;
30020;SDS011;16861;52.294;7.760;2024-03-02T20:12:57;3.65;;;2.88;;
30020;SDS011;16861;52.294;7.760;2024-03-02T20:15:24;5.68;;;3.30;;
30020;SDS011;16861;52.294;7.760;2024-03-02T20:17:50;4.30;;;3.10;;
30020;SDS011;16861;52.294;7.760;2024-03-02T20:20:17;5.28;;;3.25;;
30020;SDS011;16861;52.294;7.760;2024-03-02T20:22:44;6.07;;;3.20;;
30020;SDS011;16861;52.294;7.760;2024-03-02T20:25:12;4.57;;;3.10;;
30020;SDS011;16861;52.294;7.760;2024-03-02T20:27:39;5.70;;;3.67;;
30020;SDS011;16861;52.294;7.760;2024-03-02T20:30:10;4.70;;;3.47;;
30020;SDS011;16861;52.294;7.760;2024-03-02T20:32:37;5.13;;;3.65;;
30020;SDS011;16861;52.294;7.760;2024-03-02T20:35:05;5.63;;;3.95;;
30020;SDS011;16861;52.294;7.760;2024-03-02T20:37:32;4.45;;;3.75;;
30020;SDS011;16861;52.294;7.760;2024-03-02T20:39:59;7.10;;;3.90;;
30020;SDS011;16861;52.294;7.760;2024-03-02T20:42:26;6.05;;;4.25;;
30020;SDS011;16861;52.294;7.760;2024-03-02T20:44:53;7.97;;;5.20;;
30020;SDS011;16861;52.294;7.760;2024-03-02T20:47:19;6.43;;;4.55;;
30020;SDS011;16861;52.294;7.760;2024-03-02T20:49:49;5.78;;;4.25;;
30020;SDS011;16861;52.294;7.760;2024-03-02T20:52:17;6.72;;;4.38;;
30020;SDS011;16861;52.294;7.760;2024-03-02T20:54:46;6.03;;;3.85;;
30020;SDS011;16861;52.294;7.760;2024-03-02T20:57:12;6.53;;;3.90;;
30020;SDS011;16861;52.294;7.760;2024-03-02T20:59:39;5.82;;;3.75;;
30020;SDS011;16861;52.294;7.760;2024-03-02T21:02:06;4.53;;;3.58;;
30020;SDS011;16861;52.294;7.760;2024-03-02T21:04:33;4.43;;;3.60;;
30020;SDS011;16861;52.294;7.760;2024-03-02T21:06:59;4.47;;;3.30;;
30020;SDS011;16861;52.294;7.760;2024-03-02T21:09:26;4.22;;;3.50;;
30020;SDS011;16861;52.294;7.760;2024-03-02T21:11:53;5.57;;;3.67;;
30020;SDS011;16861;52.294;7.760;2024-03-02T21:14:20;5.63;;;3.45;;
30020;SDS011;16861;52.294;7.760;2024-03-02T21:16:48;11.23;;;3.70;;
30020;SDS011;16861;52.294;7.760;2024-03-02T21:19:16;6.38;;;3.67;;
30020;SDS011;16861;52.294;7.760;2024-03-02T21:21:43;4.65;;;3.45;;
30020;SDS011;16861;52.294;7.760;2024-03-02T21:24:10;4.38;;;3.58;;
30020;SDS011;16861;52.294;7.760;2024-03-02T21:26:40;6.68;;;4.10;;
30020;SDS011;16861;52.294;7.760;2024-03-02T21:29:09;8.40;;;4.70;;
30020;SDS011;16861;52.294;7.760;2024-03-02T21:31:37;6.65;;;4.28;;
30020;SDS011;16861;52.294;7.760;2024-03-02T21:34:03;8.27;;;4.68;;
30020;SDS011;16861;52.294;7.760;2024-03-02T21:36:31;5.97;;;4.28;;
30020;SDS011;16861;52.294;7.760;2024-03-02T21:38:58;6.95;;;4.63;;
30020;SDS011;16861;52.294;7.760;2024-03-02T21:41:28;7.50;;;4.82;;
30020;SDS011;16861;52.294;7.760;2024-03-02T21:43:55;10.30;;;4.82;;
30020;SDS011;16861;52.294;7.760;2024-03-02T21:46:21;5.65;;;4.40;;
30020;SDS011;16861;52.294;7.760;2024-03-02T21:48:48;7.65;;;5.35;;
30020;SDS011;16861;52.294;7.760;2024-03-02T21:51:18;7.63;;;4.88;;
30020;SDS011;16861;52.294;7.760;2024-03-02T21:53:45;5.45;;;4.50;;
30020;SDS011;16861;52.294;7.760;2024-03-02T21:56:12;6.82;;;4.80;;
30020;SDS011;16861;52.294;7.760;2024-03-02T21:58:39;6.20;;;4.65;;
30020;SDS011;16861;52.294;7.760;2024-03-02T22:01:06;6.18;;;4.40;;
30020;SDS011;16861;52.294;7.760;2024-03-02T22:03:32;6.10;;;4.40;;
30020;SDS011;16861;52.294;7.760;2024-03-02T22:05:59;6.57;;;4.85;;
30020;SDS011;16861;52.294;7.760;2024-03-02T22:08:26;6.72;;;4.25;;
30020;SDS011;16861;52.294;7.760;2024-03-02T22:10:56;7.30;;;4.90;;
30020;SDS011;16861;52.294;7.760;2024-03-02T22:13:23;7.38;;;5.18;;
30020;SDS011;16861;52.294;7.760;2024-03-02T22:15:50;6.97;;;4.38;;
30020;SDS011;16861;52.294;7.760;2024-03-02T22:18:16;7.50;;;4.63;;
30020;SDS011;16861;52.294;7.760;2024-03-02T22:20:43;7.78;;;5.00;;
30020;SDS011;16861;52.294;7.760;2024-03-02T22:23:09;7.47;;;5.22;;
30020;SDS011;16861;52.294;7.760;2024-03-02T22:25:36;6.10;;;4.53;;
30020;SDS011;16861;52.294;7.760;2024-03-02T22:28:03;8.63;;;5.15;;
30020;SDS011;16861;52.294;7.760;2024-03-02T22:30:30;5.50;;;4.22;;
30020;SDS011;16861;52.294;7.760;2024-03-02T22:32:56;8.65;;;5.22;;
30020;SDS011;16861;52.294;7.760;2024-03-02T22:35:24;6.63;;;4.85;;
30020;SDS011;16861;52.294;7.760;2024-03-02T22:37:51;7.57;;;4.60;;
30020;SDS011;16861;52.294;7.760;2024-03-02T22:40:17;9.63;;;5.50;;
30020;SDS011;16861;52.294;7.760;2024-03-02T22:42:44;8.77;;;5.22;;
30020;SDS011;16861;52.294;7.760;2024-03-02T22:45:11;6.85;;;4.80;;
30020;SDS011;16861;52.294;7.760;2024-03-02T22:47:38;7.45;;;5.30;;
30020;SDS011;16861;52.294;7.760;2024-03-02T22:50:05;7.95;;;5.15;;
30020;SDS011;16861;52.294;7.760;2024-03-02T22:52:33;10.75;;;6.35;;
30020;SDS011;16861;52.294;7.760;2024-03-02T22:55:02;9.45;;;5.97;;
30020;SDS011;16861;52.294;7.760;2024-03-02T22:57:29;8.88;;;5.50;;
30020;SDS011;16861;52.294;7.760;2024-03-02T22:59:55;7.63;;;5.35;;
30020;SDS011;16861;52.294;7.760;2024-03-02T23:02:22;8.35;;;5.70;;
30020;SDS011;16861;52.294;7.760;2024-03-02T23:04:50;7.78;;;5.80;;
30020;SDS011;16861;52.294;7.760;2024-03-02T23:07:17;10.77;;;6.05;;
30020;SDS011;16861;52.294;7.760;2024-03-02T23:09:48;8.25;;;5.88;;
30020;SDS011;16861;52.294;7.760;2024-03-02T23:12:15;9.50;;;6.35;;
30020;SDS011;16861;52.294;7.760;2024-03-02T23:14:42;8.55;;;5.53;;
30020;SDS011;16861;52.294;7.760;2024-03-02T23:17:09;8.35;;;6.25;;
30020;SDS011;16861;52.294;7.760;2024-03-02T23:19:36;9.25;;;6.15;;
30020;SDS011;16861;52.294;7.760;2024-03-02T23:22:03;9.30;;;6.15;;
30020;SDS011;16861;52.294;7.760;2024-03-02T23:24:31;10.90;;;6.60;;
30020;SDS011;16861;52.294;7.760;2024-03-02T23:26:58;8.07;;;5.95;;
30020;SDS011;16861;52.294;7.760;2024-03-02T23:29:24;11.90;;;6.53;;
30020;SDS011;16861;52.294;7.760;2024-03-02T23:31:51;9.48;;;6.13;;
30020;SDS011;16861;52.294;7.760;2024-03-02T23:34:17;7.47;;;5.90;;
30020;SDS011;16861;52.294;7.760;2024-03-02T23:36:44;9.15;;;5.97;;
30020;SDS011;16861;52.294;7.760;2024-03-02T23:39:11;10.35;;;6.38;;
30020;SDS011;16861;52.294;7.760;2024-03-02T23:41:57;8.68;;;6.10;;
30020;SDS011;16861;52.294;7.760;2024-03-02T23:44:24;9.02;;;6.32;;
30020;SDS011;16861;52.294;7.760;2024-03-02T23:46:50;10.93;;;6.90;;
30020;SDS011;16861;52.294;7.760;2024-03-02T23:49:17;13.23;;;6.78;;
30020;SDS011;16861;52.294;7.760;2024-03-02T23:51:44;10.45;;;7.00;;
30020;SDS011;16861;52.294;7.760;2024-03-02T23:54:11;8.75;;;6.90;;
30020;SDS011;16861;52.294;7.760;2024-03-02T23:56:37;9.23;;;6.78;;
30020;SDS011;16861;52.294;7.760;2024-03-02T23:59:04;9.88;;;6.45;;
